Time;durP1;ratioP1;P1;durP2;ratioP2;P2;SDS_P1;SDS_P2;PMS_P1;PMS_P2;Temp;Humidity;BMP_temperature;BMP_pressure;BME280_temperature;BME280_humidity;BME280_pressure;Samples;Min_cycle;Max_cycle;Signal;HPM_P1;HPM_P2
2022/03/17 00:00:14;;;;;;;57.67;42.27;;;;;;;;;;6276275;22;20018;-69
2022/03/17 00:02:40;;;;;;;56.83;44.30;;;;;;;;;;6276164;22;20058;-70
2022/03/17 00:05:08;;;;;;;58.10;43.47;;;;;;;;;;6275940;22;20365;-68
2022/03/17 00:07:34;;;;;;;59.03;43.97;;;;;;;;;;6276322;22;20074;-69
2022/03/17 00:10:01;;;;;;;54.70;43.78;;;;;;;;;;6276373;22;20012;-68
2022/03/17 00:12:27;;;;;;;56.47;43.97;;;;;;;;;;6276227;22;20074;-69
2022/03/17 00:14:53;;;;;;;62.38;44.42;;;;;;;;;;6275879;22;20011;-68
2022/03/17 00:17:19;;;;;;;57.55;44.50;;;;;;;;;;6276284;22;20000;-68
2022/03/17 00:19:45;;;;;;;59.40;45.27;;;;;;;;;;6275880;22;20000;-69
2022/03/17 00:22:15;;;;;;;65.93;48.90;;;;;;;;;;6276254;22;20414;-68
2022/03/17 00:24:42;;;;;;;67.63;49.43;;;;;;;;;;6276405;22;20004;-69
2022/03/17 00:27:08;;;;;;;66.03;48.70;;;;;;;;;;6276217;22;20438;-69
2022/03/17 00:29:37;;;;;;;62.93;47.00;;;;;;;;;;6276314;22;20019;-69
2022/03/17 00:32:04;;;;;;;69.20;50.47;;;;;;;;;;6276211;22;19996;-69
2022/03/17 00:34:30;;;;;;;62.17;47.90;;;;;;;;;;6276346;22;20007;-69
2022/03/17 00:36:57;;;;;;;68.32;48.88;;;;;;;;;;6275981;22;19996;-68
2022/03/17 00:39:25;;;;;;;64.13;46.47;;;;;;;;;;6275961;22;20426;-68
2022/03/17 00:41:51;;;;;;;59.83;45.40;;;;;;;;;;6275772;22;20020;-69
2022/03/17 00:44:17;;;;;;;63.73;45.83;;;;;;;;;;6276129;22;20457;-69
2022/03/17 00:46:43;;;;;;;67.53;48.97;;;;;;;;;;6276222;22;19996;-68
2022/03/17 00:49:12;;;;;;;62.33;48.50;;;;;;;;;;6275710;22;20018;-68
2022/03/17 00:51:38;;;;;;;64.90;46.63;;;;;;;;;;6275908;22;19995;-69
2022/03/17 00:54:04;;;;;;;59.67;46.10;;;;;;;;;;6276360;22;20390;-68
2022/03/17 00:56:30;;;;;;;67.67;49.60;;;;;;;;;;6278032;22;19999;-69
2022/03/17 00:58:56;;;;;;;63.73;46.63;;;;;;;;;;6278018;22;20004;-69
2022/03/17 01:01:22;;;;;;;66.13;50.87;;;;;;;;;;6277825;22;20000;-68
2022/03/17 01:03:48;;;;;;;62.70;49.03;;;;;;;;;;6278018;22;20529;-69
2022/03/17 01:06:15;;;;;;;62.05;48.38;;;;;;;;;;6277992;22;20006;-68
2022/03/17 01:08:41;;;;;;;63.53;47.53;;;;;;;;;;6277572;22;20054;-68
2022/03/17 01:11:07;;;;;;;69.82;48.50;;;;;;;;;;6277497;22;19999;-68
2022/03/17 01:13:33;;;;;;;62.67;47.60;;;;;;;;;;6277888;22;20000;-68
2022/03/17 01:15:59;;;;;;;59.63;46.72;;;;;;;;;;6277788;22;20000;-68
2022/03/17 01:18:25;;;;;;;60.90;45.20;;;;;;;;;;6277644;22;20027;-68
2022/03/17 01:20:52;;;;;;;60.03;45.80;;;;;;;;;;6277404;22;20050;-68
2022/03/17 01:23:18;;;;;;;56.33;42.53;;;;;;;;;;6277788;22;20035;-68
2022/03/17 01:25:44;;;;;;;51.40;39.53;;;;;;;;;;6277520;22;20121;-68
2022/03/17 01:28:10;;;;;;;56.63;40.60;;;;;;;;;;6277732;22;20014;-68
2022/03/17 01:30:36;;;;;;;54.35;41.15;;;;;;;;;;6277339;22;19995;-68
2022/03/17 01:33:03;;;;;;;52.33;38.85;;;;;;;;;;6277373;22;20485;-69
2022/03/17 01:35:29;;;;;;;53.63;37.88;;;;;;;;;;6277502;22;20004;-67
2022/03/17 01:37:55;;;;;;;47.30;37.17;;;;;;;;;;6277496;22;19996;-68
2022/03/17 01:40:21;;;;;;;44.78;34.92;;;;;;;;;;6277530;22;20010;-68
2022/03/17 01:42:47;;;;;;;42.05;34.38;;;;;;;;;;6277357;22;20438;-67
2022/03/17 01:45:15;;;;;;;41.20;33.22;;;;;;;;;;6277634;22;19999;-68
2022/03/17 01:47:41;;;;;;;39.17;31.35;;;;;;;;;;6277276;22;20050;-69
2022/03/17 01:50:09;;;;;;;40.03;31.37;;;;;;;;;;6277502;22;20019;-69
2022/03/17 01:52:35;;;;;;;40.25;30.42;;;;;;;;;;6277669;22;20025;-68
2022/03/17 01:55:02;;;;;;;44.00;32.92;;;;;;;;;;6277464;22;20083;-68
2022/03/17 01:57:28;;;;;;;42.38;31.83;;;;;;;;;;6277174;22;20000;-69
2022/03/17 01:59:54;;;;;;;45.08;31.33;;;;;;;;;;6274442;22;20004;-68
2022/03/17 02:02:20;;;;;;;50.67;33.45;;;;;;;;;;6273840;22;20000;-68
2022/03/17 02:04:49;;;;;;;46.28;32.03;;;;;;;;;;6275478;22;20007;-69
2022/03/17 02:07:16;;;;;;;43.33;31.63;;;;;;;;;;6276678;22;20484;-68
2022/03/17 02:09:43;;;;;;;42.58;31.90;;;;;;;;;;6277046;22;20007;-69
2022/03/17 02:14:55;;;;;;;36.35;29.60;;;;;;;;;;6277442;22;20014;-68
2022/03/17 02:17:22;;;;;;;35.97;29.13;;;;;;;;;;6276651;22;20008;-69
2022/03/17 02:19:49;;;;;;;35.70;27.45;;;;;;;;;;6277254;22;20027;-69
2022/03/17 02:22:16;;;;;;;36.50;27.95;;;;;;;;;;6276915;22;20004;-68
2022/03/17 02:27:29;;;;;;;36.85;27.90;;;;;;;;;;6276935;22;20457;-68
2022/03/17 02:29:55;;;;;;;40.33;28.52;;;;;;;;;;6276932;22;20011;-68
2022/03/17 02:32:21;;;;;;;36.50;27.05;;;;;;;;;;6276842;22;20430;-68
2022/03/17 02:34:47;;;;;;;36.67;27.95;;;;;;;;;;6276988;22;20334;-69
2022/03/17 02:37:14;;;;;;;34.15;27.50;;;;;;;;;;6276808;22;19996;-68
2022/03/17 02:39:41;;;;;;;37.90;27.30;;;;;;;;;;6276683;22;20010;-68
2022/03/17 02:42:08;;;;;;;32.60;27.15;;;;;;;;;;6276734;22;20346;-68
2022/03/17 02:44:34;;;;;;;33.80;27.90;;;;;;;;;;6276597;22;20085;-69
2022/03/17 02:47:00;;;;;;;33.08;25.48;;;;;;;;;;6276783;22;19999;-69
2022/03/17 02:49:26;;;;;;;34.95;24.50;;;;;;;;;;6276812;22;20012;-69
2022/03/17 02:51:54;;;;;;;33.88;22.60;;;;;;;;;;6276897;22;20004;-69
2022/03/17 02:54:20;;;;;;;29.08;23.75;;;;;;;;;;6276497;22;20035;-68
2022/03/17 02:56:46;;;;;;;29.30;23.80;;;;;;;;;;6276764;22;20000;-68
2022/03/17 02:59:12;;;;;;;28.30;22.10;;;;;;;;;;6276658;22;20010;-68
2022/03/17 03:01:38;;;;;;;27.45;20.80;;;;;;;;;;6276795;22;20071;-68
2022/03/17 03:04:04;;;;;;;23.27;19.70;;;;;;;;;;6276878;22;19999;-68
2022/03/17 03:06:30;;;;;;;24.63;20.17;;;;;;;;;;6276402;22;20000;-69
2022/03/17 03:08:56;;;;;;;24.60;20.35;;;;;;;;;;6276214;22;20038;-69
2022/03/17 03:11:22;;;;;;;24.13;19.77;;;;;;;;;;6276338;22;20022;-69
2022/03/17 03:13:48;;;;;;;23.27;20.08;;;;;;;;;;6276526;22;20423;-68
2022/03/17 03:16:14;;;;;;;25.17;18.60;;;;;;;;;;6276724;22;19996;-68
2022/03/17 03:18:40;;;;;;;23.50;19.00;;;;;;;;;;6277072;22;20330;-67
2022/03/17 03:21:10;;;;;;;24.33;18.90;;;;;;;;;;6275959;22;20383;-69
2022/03/17 03:23:37;;;;;;;25.63;19.33;;;;;;;;;;6249232;22;20094;-68
2022/03/17 03:26:03;;;;;;;21.63;19.33;;;;;;;;;;6276862;22;19996;-68
2022/03/17 03:28:29;;;;;;;31.92;23.83;;;;;;;;;;6276487;22;20323;-68
2022/03/17 03:30:55;;;;;;;40.58;29.50;;;;;;;;;;6276860;22;20319;-68
2022/03/17 03:33:21;;;;;;;38.33;30.83;;;;;;;;;;6276096;22;20008;-69
2022/03/17 03:38:43;;;;;;;39.85;30.70;;;;;;;;;;6142083;22;20014;-68
2022/03/17 03:41:09;;;;;;;37.55;29.92;;;;;;;;;;6276268;22;20418;-68
2022/03/17 03:43:35;;;;;;;41.58;31.52;;;;;;;;;;6276374;22;20008;-68
2022/03/17 03:46:01;;;;;;;38.20;30.63;;;;;;;;;;6276235;22;20061;-69
2022/03/17 03:48:27;;;;;;;42.70;31.08;;;;;;;;;;6276386;22;20011;-68
2022/03/17 03:50:53;;;;;;;39.85;29.65;;;;;;;;;;6276383;22;20327;-68
2022/03/17 03:53:19;;;;;;;37.47;28.90;;;;;;;;;;6276422;22;19996;-69
2022/03/17 03:55:45;;;;;;;36.47;27.42;;;;;;;;;;6276107;22;20010;-68
2022/03/17 03:58:12;;;;;;;35.90;27.52;;;;;;;;;;6276569;22;20316;-68
2022/03/17 04:00:41;;;;;;;33.50;27.48;;;;;;;;;;6276278;22;20011;-68
2022/03/17 04:03:07;;;;;;;34.85;28.52;;;;;;;;;;6276200;22;20003;-70
2022/03/17 04:05:34;;;;;;;34.80;26.13;;;;;;;;;;6276530;22;19995;-68
2022/03/17 04:08:00;;;;;;;31.23;25.70;;;;;;;;;;6276121;22;20011;-68
2022/03/17 04:10:27;;;;;;;31.67;25.90;;;;;;;;;;6276125;22;20023;-69
2022/03/17 04:12:54;;;;;;;38.30;27.95;;;;;;;;;;6276230;22;20430;-68
2022/03/17 04:15:20;;;;;;;36.15;29.08;;;;;;;;;;6276107;22;20010;-68
2022/03/17 04:17:46;;;;;;;36.28;26.73;;;;;;;;;;6276128;22;20022;-69
2022/03/17 04:20:12;;;;;;;33.75;28.27;;;;;;;;;;6276519;22;20004;-67
2022/03/17 04:22:38;;;;;;;37.63;28.25;;;;;;;;;;6276155;22;20000;-69
2022/03/17 04:25:05;;;;;;;33.20;27.40;;;;;;;;;;6276040;22;20003;-68
2022/03/17 04:27:31;;;;;;;33.40;28.08;;;;;;;;;;6276475;22;20010;-69
2022/03/17 04:29:57;;;;;;;36.97;28.13;;;;;;;;;;6277203;22;20014;-68
2022/03/17 04:32:24;;;;;;;32.63;26.10;;;;;;;;;;6278370;22;19999;-68
2022/03/17 04:34:50;;;;;;;36.63;28.40;;;;;;;;;;6277744;22;20015;-70
2022/03/17 04:37:16;;;;;;;33.67;28.38;;;;;;;;;;6278507;22;19999;-68
2022/03/17 04:39:42;;;;;;;37.78;26.67;;;;;;;;;;6276939;22;20004;-68
2022/03/17 04:42:09;;;;;;;31.77;26.08;;;;;;;;;;6276121;22;20069;-68
2022/03/17 04:44:35;;;;;;;32.80;26.15;;;;;;;;;;6276372;22;20000;-68
2022/03/17 04:47:01;;;;;;;31.98;26.70;;;;;;;;;;6277546;22;20011;-68
2022/03/17 04:49:27;;;;;;;31.65;26.55;;;;;;;;;;6277775;22;20043;-68
2022/03/17 04:51:53;;;;;;;36.20;27.48;;;;;;;;;;6278029;22;20436;-68
2022/03/17 04:54:20;;;;;;;35.43;27.73;;;;;;;;;;6250942;22;20418;-69
2022/03/17 04:56:46;;;;;;;38.08;28.75;;;;;;;;;;6278240;22;20323;-69
2022/03/17 04:59:12;;;;;;;32.80;27.73;;;;;;;;;;6277798;22;20010;-68
2022/03/17 05:01:38;;;;;;;32.33;27.35;;;;;;;;;;6277862;22;20067;-68
2022/03/17 05:04:05;;;;;;;33.97;27.90;;;;;;;;;;6277778;22;20010;-69
2022/03/17 05:06:31;;;;;;;34.45;27.42;;;;;;;;;;6278097;22;20011;-69
2022/03/17 05:08:59;;;;;;;36.77;29.40;;;;;;;;;;6277558;22;20533;-70
2022/03/17 05:11:25;;;;;;;32.20;26.80;;;;;;;;;;6277662;22;20007;-68
2022/03/17 05:13:51;;;;;;;36.33;28.57;;;;;;;;;;6278040;22;20004;-68
2022/03/17 05:16:18;;;;;;;37.28;29.35;;;;;;;;;;6277460;22;20414;-68
2022/03/17 05:18:44;;;;;;;39.63;29.35;;;;;;;;;;6277736;22;20370;-67
2022/03/17 05:21:10;;;;;;;35.90;28.50;;;;;;;;;;6277863;22;20047;-69
2022/03/17 05:23:38;;;;;;;39.85;29.35;;;;;;;;;;6277819;22;20004;-68
2022/03/17 05:26:04;;;;;;;41.90;27.17;;;;;;;;;;6277616;22;20007;-69
2022/03/17 05:28:30;;;;;;;34.70;27.20;;;;;;;;;;6277419;22;20008;-69
2022/03/17 05:30:57;;;;;;;36.10;28.20;;;;;;;;;;6277802;22;20097;-68
2022/03/17 05:33:23;;;;;;;30.80;26.05;;;;;;;;;;6277451;22;20000;-68
2022/03/17 05:35:49;;;;;;;37.00;26.63;;;;;;;;;;6277811;22;20406;-68
2022/03/17 05:38:15;;;;;;;41.08;27.80;;;;;;;;;;6278054;22;20008;-68
2022/03/17 05:40:42;;;;;;;36.42;26.77;;;;;;;;;;6276869;22;20011;-68
2022/03/17 05:43:09;;;;;;;37.58;26.48;;;;;;;;;;6277378;22;20027;-69
2022/03/17 05:45:36;;;;;;;36.00;26.67;;;;;;;;;;6277421;22;20370;-69
2022/03/17 05:48:04;;;;;;;40.20;27.57;;;;;;;;;;6277538;22;20411;-69
2022/03/17 05:50:32;;;;;;;34.78;27.77;;;;;;;;;;6277012;22;20118;-69
2022/03/17 05:52:58;;;;;;;36.00;28.03;;;;;;;;;;6277132;22;20480;-68
2022/03/17 05:55:25;;;;;;;37.22;27.58;;;;;;;;;;6277518;22;20360;-68
2022/03/17 05:57:52;;;;;;;35.92;27.73;;;;;;;;;;6277246;22;20000;-68
2022/03/17 06:00:20;;;;;;;37.70;27.50;;;;;;;;;;6275842;22;20434;-68
2022/03/17 06:02:46;;;;;;;40.50;27.67;;;;;;;;;;6277064;22;20071;-70
2022/03/17 06:05:13;;;;;;;34.20;27.27;;;;;;;;;;6277407;22;20003;-68
2022/03/17 06:07:42;;;;;;;37.55;28.23;;;;;;;;;;6277113;22;20075;-69
2022/03/17 06:10:09;;;;;;;32.00;25.88;;;;;;;;;;6276693;22;20020;-69
2022/03/17 06:12:36;;;;;;;39.92;26.45;;;;;;;;;;6276378;22;20418;-68
2022/03/17 06:15:02;;;;;;;35.25;27.10;;;;;;;;;;6276345;22;20056;-68
2022/03/17 06:17:37;;;;;;;33.65;26.00;;;;;;;;;;6276366;22;20044;-68
2022/03/17 06:20:03;;;;;;;31.60;25.23;;;;;;;;;;6277066;22;20075;-68
2022/03/17 06:22:30;;;;;;;34.60;26.38;;;;;;;;;;6276985;22;20330;-68
2022/03/17 06:24:56;;;;;;;31.73;24.83;;;;;;;;;;6277277;22;20391;-68
2022/03/17 06:27:22;;;;;;;30.25;23.77;;;;;;;;;;6277035;22;20030;-68
2022/03/17 06:29:48;;;;;;;33.85;23.65;;;;;;;;;;6276785;22;20065;-69
2022/03/17 06:32:14;;;;;;;39.28;22.92;;;;;;;;;;6276861;22;20079;-68
2022/03/17 06:34:40;;;;;;;38.03;22.60;;;;;;;;;;6277050;22;20007;-69
2022/03/17 06:37:06;;;;;;;28.50;23.25;;;;;;;;;;6276892;22;20002;-69
2022/03/17 06:39:32;;;;;;;31.58;22.30;;;;;;;;;;6277101;22;20008;-68
2022/03/17 06:41:58;;;;;;;27.77;21.38;;;;;;;;;;6276480;22;20461;-67
2022/03/17 06:44:24;;;;;;;27.33;20.63;;;;;;;;;;6277236;22;20003;-69
2022/03/17 06:46:50;;;;;;;27.35;19.77;;;;;;;;;;6276820;22;20000;-68
2022/03/17 06:49:16;;;;;;;29.52;19.55;;;;;;;;;;6276449;22;20034;-68
2022/03/17 06:51:42;;;;;;;27.83;18.83;;;;;;;;;;6276334;22;20422;-68
2022/03/17 06:54:08;;;;;;;23.35;18.02;;;;;;;;;;6276476;22;19995;-69
2022/03/17 06:56:34;;;;;;;21.95;16.88;;;;;;;;;;6276635;22;20517;-69
2022/03/17 06:59:00;;;;;;;23.65;16.67;;;;;;;;;;6276648;22;20000;-69
2022/03/17 07:01:26;;;;;;;21.08;16.63;;;;;;;;;;6276590;22;20004;-68
2022/03/17 07:03:52;;;;;;;23.63;17.67;;;;;;;;;;6276231;22;20000;-69
2022/03/17 07:06:19;;;;;;;24.73;17.40;;;;;;;;;;6276730;22;20027;-69
2022/03/17 07:08:45;;;;;;;23.33;17.02;;;;;;;;;;6276771;22;20011;-68
2022/03/17 07:11:11;;;;;;;19.77;15.90;;;;;;;;;;6276707;22;20445;-68
2022/03/17 07:13:37;;;;;;;21.90;17.50;;;;;;;;;;6276556;22;20492;-68
2022/03/17 07:16:03;;;;;;;24.95;16.67;;;;;;;;;;6275879;22;20007;-68
2022/03/17 07:18:29;;;;;;;22.88;17.02;;;;;;;;;;6249190;22;20003;-67
2022/03/17 07:20:57;;;;;;;24.80;16.85;;;;;;;;;;6275896;22;20484;-68
2022/03/17 07:23:24;;;;;;;20.15;16.58;;;;;;;;;;6276291;22;20296;-68
2022/03/17 07:25:50;;;;;;;23.95;15.85;;;;;;;;;;6276366;22;20015;-68
2022/03/17 07:28:18;;;;;;;21.35;16.10;;;;;;;;;;6276269;22;20010;-67
2022/03/17 07:30:44;;;;;;;22.83;17.05;;;;;;;;;;6275279;22;20087;-67
2022/03/17 07:33:10;;;;;;;18.85;15.50;;;;;;;;;;6275779;22;20014;-70
2022/03/17 07:35:37;;;;;;;22.77;15.68;;;;;;;;;;6273604;22;20446;-68
2022/03/17 07:38:04;;;;;;;21.02;16.90;;;;;;;;;;6275315;22;19999;-67
2022/03/17 07:40:30;;;;;;;23.10;16.83;;;;;;;;;;6275271;22;20331;-68
2022/03/17 07:42:56;;;;;;;22.42;15.38;;;;;;;;;;6274816;22;20023;-68
2022/03/17 07:45:22;;;;;;;21.30;16.70;;;;;;;;;;6275784;22;20015;-67
2022/03/17 07:47:49;;;;;;;27.42;17.10;;;;;;;;;;6275539;22;20067;-67
2022/03/17 07:50:15;;;;;;;19.80;16.30;;;;;;;;;;6275423;22;20008;-67
2022/03/17 07:52:42;;;;;;;25.63;16.20;;;;;;;;;;6275241;22;20035;-67
2022/03/17 07:55:09;;;;;;;22.15;16.80;;;;;;;;;;6275430;22;20003;-67
2022/03/17 07:57:35;;;;;;;18.98;16.00;;;;;;;;;;6275111;22;19999;-68
2022/03/17 08:00:01;;;;;;;20.45;15.95;;;;;;;;;;6274634;22;20090;-68
2022/03/17 08:02:27;;;;;;;23.50;17.13;;;;;;;;;;6275014;22;20003;-68
2022/03/17 08:04:54;;;;;;;25.10;17.10;;;;;;;;;;6273914;22;19996;-68
2022/03/17 08:07:20;;;;;;;23.42;16.30;;;;;;;;;;6276092;22;19999;-68
2022/03/17 08:09:46;;;;;;;18.77;15.73;;;;;;;;;;6275428;22;20008;-69
2022/03/17 08:12:12;;;;;;;22.52;16.25;;;;;;;;;;6273560;22;20006;-69
2022/03/17 08:14:38;;;;;;;21.60;16.35;;;;;;;;;;6271505;22;20000;-68
2022/03/17 08:17:05;;;;;;;18.40;15.70;;;;;;;;;;6268622;22;20082;-68
2022/03/17 08:19:31;;;;;;;20.75;15.63;;;;;;;;;;6271539;22;20043;-68
2022/03/17 08:21:57;;;;;;;27.70;13.98;;;;;;;;;;6274840;22;20000;-67
2022/03/17 08:24:23;;;;;;;23.88;16.60;;;;;;;;;;6275339;22;19999;-68
2022/03/17 08:26:51;;;;;;;21.05;15.32;;;;;;;;;;6275698;22;20316;-67
2022/03/17 08:29:17;;;;;;;21.95;16.05;;;;;;;;;;6275553;22;20015;-68
2022/03/17 08:31:43;;;;;;;17.80;15.15;;;;;;;;;;6275156;22;20322;-67
2022/03/17 08:34:09;;;;;;;21.23;15.73;;;;;;;;;;6275111;22;20007;-68
2022/03/17 08:36:35;;;;;;;23.48;15.73;;;;;;;;;;6242645;22;20022;-68
2022/03/17 08:39:01;;;;;;;18.27;14.73;;;;;;;;;;6275550;22;20004;-67
2022/03/17 08:41:27;;;;;;;20.30;15.05;;;;;;;;;;6274839;22;20012;-66
2022/03/17 08:43:53;;;;;;;21.63;15.88;;;;;;;;;;6275249;22;20011;-68
2022/03/17 08:49:22;;;;;;;19.88;14.80;;;;;;;;;;6275208;22;20026;-68
2022/03/17 08:51:51;;;;;;;19.67;14.35;;;;;;;;;;6275445;22;20426;-68
2022/03/17 08:54:17;;;;;;;21.45;14.68;;;;;;;;;;6275239;22;20411;-68
2022/03/17 08:56:43;;;;;;;26.08;15.63;;;;;;;;;;6275024;22;20073;-68
2022/03/17 08:59:10;;;;;;;17.20;13.15;;;;;;;;;;6275355;22;19995;-68
2022/03/17 09:01:39;;;;;;;17.25;14.05;;;;;;;;;;6275469;22;20081;-68
2022/03/17 09:04:05;;;;;;;19.05;13.50;;;;;;;;;;6275318;22;20004;-68
2022/03/17 09:06:31;;;;;;;26.25;13.55;;;;;;;;;;6275437;22;20035;-68
2022/03/17 09:08:57;;;;;;;23.45;13.50;;;;;;;;;;6275083;22;20019;-67
2022/03/17 09:11:24;;;;;;;14.90;12.55;;;;;;;;;;6275391;22;20051;-67
2022/03/17 09:13:50;;;;;;;20.10;13.18;;;;;;;;;;6275529;22;20002;-68
2022/03/17 09:16:19;;;;;;;14.98;12.93;;;;;;;;;;6276502;22;20010;-68
2022/03/17 09:18:45;;;;;;;17.80;13.45;;;;;;;;;;6276714;22;20000;-68
2022/03/17 09:21:11;;;;;;;17.77;12.63;;;;;;;;;;6277455;22;20423;-68
2022/03/17 09:23:37;;;;;;;17.50;12.93;;;;;;;;;;6275944;22;20000;-68
2022/03/17 09:26:03;;;;;;;19.10;12.93;;;;;;;;;;6277316;22;20060;-68
2022/03/17 09:28:29;;;;;;;16.85;11.95;;;;;;;;;;6277022;22;20024;-68
2022/03/17 09:30:56;;;;;;;17.92;13.40;;;;;;;;;;6277121;22;20079;-67
2022/03/17 09:33:25;;;;;;;15.45;12.65;;;;;;;;;;6277396;22;20010;-68
2022/03/17 09:35:55;;;;;;;19.15;12.05;;;;;;;;;;6277159;22;20007;-68
2022/03/17 09:38:21;;;;;;;16.52;12.35;;;;;;;;;;6276964;22;20430;-68
2022/03/17 09:40:47;;;;;;;17.08;13.25;;;;;;;;;;6276844;22;20004;-68
2022/03/17 09:43:21;;;;;;;20.58;11.95;;;;;;;;;;6276995;22;20010;-67
2022/03/17 09:45:50;;;;;;;14.60;12.23;;;;;;;;;;6277499;22;20323;-67
2022/03/17 09:48:17;;;;;;;20.10;12.60;;;;;;;;;;6277466;22;20045;-68
2022/03/17 09:50:44;;;;;;;20.75;12.48;;;;;;;;;;6277499;22;20342;-68
2022/03/17 09:53:10;;;;;;;17.17;11.70;;;;;;;;;;6277545;22;20000;-68
2022/03/17 09:55:36;;;;;;;18.88;11.90;;;;;;;;;;6276959;22;20004;-68
2022/03/17 09:58:03;;;;;;;18.67;13.27;;;;;;;;;;6277663;22;20154;-68
2022/03/17 10:00:48;;;;;;;19.33;12.18;;;;;;;;;;6277765;22;20008;-68
2022/03/17 10:03:20;;;;;;;17.27;12.35;;;;;;;;;;6277381;22;19996;-68
2022/03/17 10:05:46;;;;;;;17.40;11.75;;;;;;;;;;6277218;22;20003;-68
2022/03/17 10:08:13;;;;;;;20.98;12.27;;;;;;;;;;6276024;22;20082;-68
2022/03/17 10:10:40;;;;;;;15.60;11.88;;;;;;;;;;6277183;22;20046;-68
2022/03/17 10:13:14;;;;;;;18.27;10.98;;;;;;;;;;6277428;22;20335;-68
2022/03/17 10:15:40;;;;;;;19.90;11.70;;;;;;;;;;6277590;22;20010;-68
2022/03/17 10:18:19;;;;;;;14.35;12.48;;;;;;;;;;6277591;22;20000;-68
2022/03/17 10:20:46;;;;;;;15.85;11.20;;;;;;;;;;6276984;22;20365;-68
2022/03/17 10:23:12;;;;;;;16.95;10.95;;;;;;;;;;6277167;22;20023;-69
2022/03/17 10:25:38;;;;;;;17.45;11.07;;;;;;;;;;6277405;22;20050;-68
2022/03/17 10:28:04;;;;;;;16.75;11.02;;;;;;;;;;6276923;22;20012;-68
2022/03/17 10:30:35;;;;;;;13.43;11.45;;;;;;;;;;6277363;22;20039;-68
2022/03/17 10:33:05;;;;;;;13.95;10.13;;;;;;;;;;6277208;22;20323;-68
2022/03/17 10:35:34;;;;;;;13.07;10.60;;;;;;;;;;6277514;22;20000;-68
2022/03/17 10:38:13;;;;;;;19.35;10.38;;;;;;;;;;6277073;22;20300;-68
2022/03/17 10:40:41;;;;;;;18.17;10.98;;;;;;;;;;6277138;22;20090;-68
2022/03/17 10:43:23;;;;;;;16.25;9.38;;;;;;;;;;6277762;22;20338;-68
2022/03/17 10:45:49;;;;;;;;;;;;;;;;;;6277842;22;20003;-67
2022/03/17 10:48:15;;;;;;;14.73;9.68;;;;;;;;;;6276843;22;19942;-68
2022/03/17 10:50:42;;;;;;;14.50;9.05;;;;;;;;;;6276783;22;20011;-68
2022/03/17 10:53:09;;;;;;;13.48;9.13;;;;;;;;;;6277055;22;20031;-68
2022/03/17 10:55:36;;;;;;;18.80;10.32;;;;;;;;;;6277268;22;20012;-69
2022/03/17 10:58:28;;;;;;;13.85;9.40;;;;;;;;;;6276963;22;20326;-68
2022/03/17 11:00:58;;;;;;;13.98;8.68;;;;;;;;;;6274674;22;20439;-68
2022/03/17 11:03:24;;;;;;;12.30;8.70;;;;;;;;;;6276944;22;20027;-68
2022/03/17 11:05:51;;;;;;;11.38;9.30;;;;;;;;;;6276956;22;19999;-69
2022/03/17 11:08:20;;;;;;;17.98;9.40;;;;;;;;;;6277115;22;20004;-69
2022/03/17 11:10:46;;;;;;;11.75;8.85;;;;;;;;;;6276237;22;20014;-68
2022/03/17 11:13:12;;;;;;;18.70;9.48;;;;;;;;;;6277108;22;20004;-69
2022/03/17 11:15:40;;;;;;;12.18;9.25;;;;;;;;;;6276735;22;19999;-68
2022/03/17 11:18:08;;;;;;;13.02;9.52;;;;;;;;;;6276448;22;20049;-68
2022/03/17 11:20:34;;;;;;;17.63;8.75;;;;;;;;;;6276934;22;20007;-67
2022/03/17 11:23:20;;;;;;;16.70;8.90;;;;;;;;;;6276437;22;20008;-66
2022/03/17 11:25:52;;;;;;;11.40;9.02;;;;;;;;;;6276803;22;20011;-65
2022/03/17 11:28:20;;;;;;;17.55;9.27;;;;;;;;;;6276185;22;20445;-66
2022/03/17 11:30:47;;;;;;;16.33;8.40;;;;;;;;;;6276514;22;20064;-65
2022/03/17 11:33:22;;;;;;;14.38;8.73;;;;;;;;;;6276556;22;20002;-65
2022/03/17 11:36:02;;;;;;;16.95;8.00;;;;;;;;;;6276328;22;20000;-65
2022/03/17 11:38:28;;;;;;;10.98;7.60;;;;;;;;;;6276503;22;19999;-69
2022/03/17 11:41:13;;;;;;;15.23;7.68;;;;;;;;;;6275907;22;20062;-65
2022/03/17 11:43:40;;;;;;;17.52;6.63;;;;;;;;;;6276951;22;20024;-65
2022/03/17 11:46:10;;;;;;;14.55;7.20;;;;;;;;;;6276454;22;20010;-66
2022/03/17 11:48:36;;;;;;;14.27;6.38;;;;;;;;;;6276314;22;20000;-65
2022/03/17 11:51:06;;;;;;;13.88;6.97;;;;;;;;;;6275762;22;20061;-65
2022/03/17 11:53:39;;;;;;;10.45;6.93;;;;;;;;;;6276027;22;20012;-66
2022/03/17 11:56:05;;;;;;;14.02;6.22;;;;;;;;;;6274356;22;20007;-65
2022/03/17 11:58:39;;;;;;;11.48;6.75;;;;;;;;;;6276550;22;20023;-65
2022/03/17 12:01:06;;;;;;;11.70;6.60;;;;;;;;;;6275965;22;20010;-69
2022/03/17 12:03:33;;;;;;;11.00;7.10;;;;;;;;;;6276272;22;20008;-65
2022/03/17 12:06:04;;;;;;;10.23;6.95;;;;;;;;;;6276324;22;20331;-65
2022/03/17 12:08:37;;;;;;;12.95;6.65;;;;;;;;;;6276580;22;20478;-65
2022/03/17 12:11:08;;;;;;;11.82;7.05;;;;;;;;;;6276486;22;20002;-66
2022/03/17 12:13:36;;;;;;;9.45;6.72;;;;;;;;;;6276054;22;20294;-69
2022/03/17 12:16:02;;;;;;;12.68;6.55;;;;;;;;;;6276145;22;20079;-65
2022/03/17 12:18:28;;;;;;;12.40;7.28;;;;;;;;;;6276155;22;20000;-65
2022/03/17 12:20:56;;;;;;;10.93;7.30;;;;;;;;;;6276434;22;20077;-65
2022/03/17 12:23:41;;;;;;;15.27;7.15;;;;;;;;;;6275441;22;20006;-65
2022/03/17 12:26:07;;;;;;;17.77;7.72;;;;;;;;;;6276158;22;20008;-65
2022/03/17 12:28:34;;;;;;;11.70;7.35;;;;;;;;;;6276069;22;20373;-65
2022/03/17 12:31:00;;;;;;;19.75;7.57;;;;;;;;;;6276155;22;20034;-65
2022/03/17 12:33:26;;;;;;;10.60;7.40;;;;;;;;;;6276193;22;20000;-66
2022/03/17 12:36:05;;;;;;;11.15;7.20;;;;;;;;;;6276267;22;20004;-65
2022/03/17 12:38:32;;;;;;;12.25;7.15;;;;;;;;;;6276055;22;19999;-64
2022/03/17 12:41:00;;;;;;;13.48;7.38;;;;;;;;;;6276040;22;20018;-65
2022/03/17 12:43:26;;;;;;;14.23;7.68;;;;;;;;;;6276052;22;20481;-65
2022/03/17 12:45:53;;;;;;;14.15;6.90;;;;;;;;;;6276107;22;20329;-68
2022/03/17 12:48:20;;;;;;;16.88;7.57;;;;;;;;;;6275196;22;20042;-66
2022/03/17 12:50:47;;;;;;;13.32;7.95;;;;;;;;;;6275636;22;20025;-65
2022/03/17 12:53:13;;;;;;;16.55;7.25;;;;;;;;;;6277533;22;20000;-64
2022/03/17 12:55:40;;;;;;;16.90;7.90;;;;;;;;;;6277075;22;20000;-64
2022/03/17 12:58:06;;;;;;;12.20;7.15;;;;;;;;;;6277579;22;20003;-65
2022/03/17 13:00:32;;;;;;;13.75;7.28;;;;;;;;;;6277647;22;20004;-71
2022/03/17 13:02:59;;;;;;;15.23;7.00;;;;;;;;;;6276601;22;19996;-63
2022/03/17 13:08:11;;;;;;;19.35;7.70;;;;;;;;;;6276721;22;20077;-62
2022/03/17 13:16:08;;;;;;;17.60;7.85;;;;;;;;;;6277437;22;20054;-73
2022/03/17 13:18:44;;;;;;;19.58;7.05;;;;;;;;;;6276979;22;20003;-63
2022/03/17 13:21:20;;;;;;;14.55;7.30;;;;;;;;;;6277062;22;20004;-73
2022/03/17 13:23:46;;;;;;;14.52;7.75;;;;;;;;;;6277246;22;20071;-63
2022/03/17 13:26:12;;;;;;;21.80;8.38;;;;;;;;;;6277167;22;20004;-63
2022/03/17 13:28:38;;;;;;;15.82;7.43;;;;;;;;;;6277096;22;20046;-64
2022/03/17 13:31:04;;;;;;;10.98;7.43;;;;;;;;;;6276635;22;20006;-63
2022/03/17 13:33:35;;;;;;;18.00;7.72;;;;;;;;;;6276989;22;20303;-63
2022/03/17 13:36:01;;;;;;;17.40;7.40;;;;;;;;;;6277671;22;20042;-63
2022/03/17 13:38:31;;;;;;;14.73;6.75;;;;;;;;;;6277344;22;19996;-76
2022/03/17 13:40:59;;;;;;;12.20;7.35;;;;;;;;;;6276775;22;20040;-64
2022/03/17 13:43:33;;;;;;;11.98;7.22;;;;;;;;;;6277361;22;20034;-65
2022/03/17 13:46:00;;;;;;;15.27;7.82;;;;;;;;;;6277279;22;20338;-71
2022/03/17 13:48:27;;;;;;;15.85;6.50;;;;;;;;;;6277290;22;20377;-64
2022/03/17 13:50:57;;;;;;;17.42;6.75;;;;;;;;;;6277069;22;20014;-63
2022/03/17 13:53:31;;;;;;;16.85;6.57;;;;;;;;;;6277202;22;20369;-64
2022/03/17 13:56:03;;;;;;;19.65;7.53;;;;;;;;;;6277357;22;19999;-63
2022/03/17 13:58:30;;;;;;;12.18;6.45;;;;;;;;;;6276951;22;20441;-64
2022/03/17 14:01:07;;;;;;;13.07;6.68;;;;;;;;;;6277284;22;20003;-63
2022/03/17 14:03:33;;;;;;;15.93;6.47;;;;;;;;;;6276502;22;20034;-63
2022/03/17 14:06:00;;;;;;;14.38;7.38;;;;;;;;;;6277025;22;20007;-64
2022/03/17 14:08:26;;;;;;;13.68;6.90;;;;;;;;;;6277616;22;20142;-63
2022/03/17 14:10:52;;;;;;;18.75;7.32;;;;;;;;;;6277026;22;20501;-62
2022/03/17 14:13:22;;;;;;;16.55;7.05;;;;;;;;;;6277498;22;20011;-63
2022/03/17 14:15:51;;;;;;;13.38;6.68;;;;;;;;;;6276662;22;20004;-70
2022/03/17 14:18:18;;;;;;;16.38;7.50;;;;;;;;;;6276860;22;20056;-70
2022/03/17 14:20:44;;;;;;;10.07;6.78;;;;;;;;;;6276454;22;20004;-68
2022/03/17 14:26:03;;;;;;;13.20;6.75;;;;;;;;;;6218678;22;20011;-63
2022/03/17 14:28:29;;;;;;;17.05;7.30;;;;;;;;;;6276620;22;20004;-63
2022/03/17 14:30:55;;;;;;;17.30;7.20;;;;;;;;;;6276383;22;20011;-63
2022/03/17 14:33:21;;;;;;;17.77;7.72;;;;;;;;;;6276425;22;19996;-69
2022/03/17 14:35:49;;;;;;;17.73;7.70;;;;;;;;;;6276262;22;20004;-64
2022/03/17 14:38:15;;;;;;;18.27;7.65;;;;;;;;;;6276325;22;20000;-63
2022/03/17 14:40:41;;;;;;;16.65;6.75;;;;;;;;;;6275591;22;20061;-64
2022/03/17 14:43:07;;;;;;;16.63;7.40;;;;;;;;;;6276814;22;20031;-64